Time;durP1;ratioP1;P1;durP2;ratioP2;P2;SDS_P1;SDS_P2;PMS_P1;PMS_P2;Temp;Humidity;BMP_temperature;BMP_pressure;BME280_temperature;BME280_humidity;BME280_pressure;Samples;Min_cycle;Max_cycle;Signal;HPM_P1;HPM_P2
2023/12/14 00:01:26;;;;;;;0.90;0.80;;;;;;;;;;10452578;28;20060;-78
2023/12/14 00:06:30;;;;;;;1.90;0.63;;;;;;;;;;10457868;28;20059;-81
2023/12/14 00:11:33;;;;;;;0.57;0.35;;;;;;;;;;10454417;28;20475;-78
2023/12/14 00:16:36;;;;;;;1.30;0.60;;;;;;;;;;10458418;28;20381;-78
2023/12/14 00:21:40;;;;;;;1.10;0.70;;;;;;;;;;10458210;28;20087;-78
2023/12/14 00:26:42;;;;;;;0.95;0.60;;;;;;;;;;10452397;28;20040;-79
2023/12/14 00:31:45;;;;;;;1.05;0.73;;;;;;;;;;10456540;28;21721;-79
2023/12/14 00:36:49;;;;;;;1.35;0.73;;;;;;;;;;10474618;28;20045;-79
2023/12/14 00:41:52;;;;;;;1.50;0.85;;;;;;;;;;10454264;28;20032;-81
2023/12/14 00:46:54;;;;;;;2.38;1.13;;;;;;;;;;10457508;28;20441;-77
2023/12/14 00:51:58;;;;;;;1.90;1.10;;;;;;;;;;10465933;28;20526;-77
2023/12/14 00:57:01;;;;;;;1.40;0.63;;;;;;;;;;10465722;28;20064;-78
2023/12/14 01:02:04;;;;;;;0.95;0.75;;;;;;;;;;10465132;28;20745;-79
2023/12/14 01:07:08;;;;;;;1.40;1.10;;;;;;;;;;10449320;28;20385;-77
2023/12/14 01:12:11;;;;;;;;;;;;;;;;;;10462838;28;20033;-78
2023/12/14 01:17:13;;;;;;;1.80;1.00;;;;;;;;;;10462867;28;20456;-78
2023/12/14 01:22:17;;;;;;;1.45;1.00;;;;;;;;;;10471128;28;20092;-78
2023/12/14 01:27:20;;;;;;;1.15;0.80;;;;;;;;;;10470549;28;20079;-78
2023/12/14 01:32:22;;;;;;;1.27;0.70;;;;;;;;;;10466375;28;20036;-78
2023/12/14 01:37:26;;;;;;;1.23;0.85;;;;;;;;;;10465384;28;20127;-78
2023/12/14 01:42:29;;;;;;;1.30;0.73;;;;;;;;;;10469035;28;20135;-78
2023/12/14 01:47:32;;;;;;;0.50;0.50;;;;;;;;;;10468105;28;20055;-78
2023/12/14 01:52:36;;;;;;;1.17;0.70;;;;;;;;;;10464121;28;20048;-79
2023/12/14 01:57:39;;;;;;;1.33;0.43;;;;;;;;;;10468871;28;20048;-80
2023/12/14 02:02:41;;;;;;;0.38;0.35;;;;;;;;;;10456677;28;20127;-77
2023/12/14 02:07:45;;;;;;;0.80;0.45;;;;;;;;;;10463080;28;20079;-78
2023/12/14 02:12:48;;;;;;;0.73;0.40;;;;;;;;;;10466573;28;20037;-76
2023/12/14 02:17:51;;;;;;;0.40;0.40;;;;;;;;;;10463575;28;20958;-76
2023/12/14 02:22:55;;;;;;;0.20;0.20;;;;;;;;;;10460364;28;20451;-76
2023/12/14 02:27:58;;;;;;;0.63;0.22;;;;;;;;;;10479887;28;20483;-78
2023/12/14 02:33:01;;;;;;;1.83;0.32;;;;;;;;;;10460463;28;20123;-77
2023/12/14 02:38:05;;;;;;;1.30;0.70;;;;;;;;;;10459461;28;20090;-77
2023/12/14 02:43:07;;;;;;;1.38;0.70;;;;;;;;;;10464178;28;20040;-77
2023/12/14 02:48:10;;;;;;;0.88;0.70;;;;;;;;;;10466107;28;20076;-77
2023/12/14 02:53:14;;;;;;;1.98;1.17;;;;;;;;;;10463976;28;20843;-78
2023/12/14 02:58:17;;;;;;;;;;;;;;;;;;10468858;28;20036;-78
2023/12/14 03:03:20;;;;;;;1.80;1.15;;;;;;;;;;10463835;28;19924;-78
2023/12/14 03:08:24;;;;;;;2.60;1.40;;;;;;;;;;10443569;28;20056;-78
2023/12/14 03:13:28;;;;;;;3.20;1.70;;;;;;;;;;10459147;28;20503;-78
2023/12/14 03:18:31;;;;;;;4.65;1.98;;;;;;;;;;10461869;28;20037;-79
2023/12/14 03:23:35;;;;;;;3.63;2.13;;;;;;;;;;10461914;28;20043;-78
2023/12/14 03:28:37;;;;;;;2.47;1.40;;;;;;;;;;10457454;28;20426;-78
2023/12/14 03:33:40;;;;;;;3.42;2.10;;;;;;;;;;10458324;28;20041;-78
2023/12/14 03:38:44;;;;;;;2.90;1.58;;;;;;;;;;10465900;28;20044;-78
2023/12/14 03:43:47;;;;;;;4.05;1.88;;;;;;;;;;10469320;28;20060;-77
2023/12/14 03:48:49;;;;;;;2.22;1.65;;;;;;;;;;10457233;28;20040;-77
2023/12/14 03:53:55;;;;;;;3.85;1.75;;;;;;;;;;10465183;28;20157;-78
2023/12/14 03:58:58;;;;;;;3.13;1.95;;;;;;;;;;10460281;28;20091;-78
2023/12/14 04:04:01;;;;;;;5.07;1.90;;;;;;;;;;10463911;28;20036;-78
2023/12/14 04:09:05;;;;;;;5.75;1.92;;;;;;;;;;10456266;28;20068;-77
2023/12/14 04:14:09;;;;;;;4.10;1.90;;;;;;;;;;10459353;28;20064;-78
2023/12/14 04:19:12;;;;;;;3.80;1.88;;;;;;;;;;10456883;28;20060;-79
2023/12/14 04:24:16;;;;;;;3.65;2.10;;;;;;;;;;10454718;28;20052;-79
2023/12/14 04:29:18;;;;;;;2.38;1.60;;;;;;;;;;10461051;28;20044;-78
2023/12/14 04:34:21;;;;;;;2.17;1.42;;;;;;;;;;10459179;28;20038;-78
2023/12/14 04:39:25;;;;;;;3.50;1.60;;;;;;;;;;10474899;28;20564;-79
2023/12/14 04:44:28;;;;;;;3.58;1.38;;;;;;;;;;10463422;28;20211;-76
2023/12/14 04:49:30;;;;;;;2.17;1.25;;;;;;;;;;10463174;28;20413;-78
2023/12/14 04:54:37;;;;;;;3.13;1.70;;;;;;;;;;10460878;28;20546;-79
2023/12/14 04:59:42;;;;;;;1.98;0.93;;;;;;;;;;10465161;28;20045;-78
2023/12/14 05:04:44;;;;;;;;;;;;;;;;;;10467783;28;20044;-78
2023/12/14 05:09:48;;;;;;;2.55;1.40;;;;;;;;;;10447331;28;20022;-79
2023/12/14 05:14:51;;;;;;;1.02;0.70;;;;;;;;;;10467488;28;20056;-78
2023/12/14 05:19:53;;;;;;;1.58;0.60;;;;;;;;;;10466367;28;20466;-78
2023/12/14 05:24:57;;;;;;;3.03;1.27;;;;;;;;;;10468930;28;20072;-79
2023/12/14 05:30:00;;;;;;;1.92;0.90;;;;;;;;;;10465748;28;20522;-80
2023/12/14 05:35:03;;;;;;;2.50;1.45;;;;;;;;;;10476462;28;20110;-78
2023/12/14 05:40:08;;;;;;;2.85;1.30;;;;;;;;;;10468137;28;20119;-79
2023/12/14 05:45:11;;;;;;;1.98;1.08;;;;;;;;;;10465445;28;20048;-76
2023/12/14 05:50:14;;;;;;;1.83;1.00;;;;;;;;;;10457613;28;20490;-81
2023/12/14 05:55:21;;;;;;;3.78;1.40;;;;;;;;;;10468754;28;20325;-80
2023/12/14 06:00:24;;;;;;;1.65;1.00;;;;;;;;;;10460824;28;20055;-77
2023/12/14 06:05:26;;;;;;;1.88;1.10;;;;;;;;;;10460910;28;20055;-79
2023/12/14 06:10:32;;;;;;;3.10;1.40;;;;;;;;;;10457139;28;20171;-78
2023/12/14 06:15:34;;;;;;;4.22;1.60;;;;;;;;;;10448515;28;20041;-77
2023/12/14 06:20:37;;;;;;;1.77;0.98;;;;;;;;;;10464926;28;20041;-77
2023/12/14 06:25:41;;;;;;;3.60;1.77;;;;;;;;;;10465657;28;20706;-78
2023/12/14 06:30:44;;;;;;;6.00;2.05;;;;;;;;;;10472719;28;20040;-79
2023/12/14 06:35:46;;;;;;;3.25;1.90;;;;;;;;;;10467466;28;20037;-79
2023/12/14 06:40:50;;;;;;;6.03;2.17;;;;;;;;;;10461895;28;20115;-78
2023/12/14 06:45:53;;;;;;;4.70;2.10;;;;;;;;;;10452260;28;20052;-78
2023/12/14 06:50:56;;;;;;;4.43;2.05;;;;;;;;;;10459594;28;20139;-78
2023/12/14 06:56:00;;;;;;;6.47;2.58;;;;;;;;;;10455161;28;20636;-78
2023/12/14 07:01:03;;;;;;;;;;;;;;;;;;10448811;28;20056;-76
2023/12/14 07:06:05;;;;;;;3.58;1.35;;;;;;;;;;10451731;28;19960;-78
2023/12/14 07:11:09;;;;;;;5.65;2.08;;;;;;;;;;10449432;28;20225;-77
2023/12/14 07:16:12;;;;;;;2.15;0.98;;;;;;;;;;10448444;28;20104;-77
2023/12/14 07:21:15;;;;;;;6.00;2.63;;;;;;;;;;10457731;28;20041;-77
2023/12/14 07:26:19;;;;;;;6.25;2.40;;;;;;;;;;10457885;28;20135;-77
2023/12/14 07:31:22;;;;;;;7.13;2.78;;;;;;;;;;10453428;28;20524;-77
2023/12/14 07:36:24;;;;;;;5.20;2.58;;;;;;;;;;10462093;28;20490;-78
2023/12/14 07:41:29;;;;;;;3.67;2.00;;;;;;;;;;10459949;28;20460;-78
2023/12/14 07:46:32;;;;;;;3.10;1.25;;;;;;;;;;10446830;28;20052;-78
2023/12/14 07:51:35;;;;;;;8.52;3.03;;;;;;;;;;10452256;28;20047;-78
2023/12/14 07:56:39;;;;;;;6.90;3.03;;;;;;;;;;10453102;28;20044;-78
2023/12/14 08:01:42;;;;;;;5.13;2.38;;;;;;;;;;10456336;28;20123;-79
2023/12/14 08:06:45;;;;;;;10.23;3.55;;;;;;;;;;10462687;28;20044;-77
2023/12/14 08:11:49;;;;;;;5.45;2.35;;;;;;;;;;10446574;28;20110;-77
2023/12/14 08:16:52;;;;;;;7.13;3.45;;;;;;;;;;10458694;28;20067;-77
2023/12/14 08:21:55;;;;;;;12.13;3.70;;;;;;;;;;10463777;28;20052;-78
2023/12/14 08:26:59;;;;;;;9.70;3.63;;;;;;;;;;10462751;28;20052;-78
2023/12/14 08:32:01;;;;;;;7.93;3.25;;;;;;;;;;10460966;28;20060;-78
2023/12/14 08:37:04;;;;;;;7.97;3.22;;;;;;;;;;10467775;28;20052;-78
2023/12/14 08:42:08;;;;;;;9.90;3.63;;;;;;;;;;10468578;28;20290;-78
2023/12/14 08:47:10;;;;;;;7.65;3.33;;;;;;;;;;10462923;28;20045;-78
2023/12/14 08:52:14;;;;;;;5.40;2.45;;;;;;;;;;10443967;28;20059;-78
2023/12/14 08:57:18;;;;;;;13.35;2.67;;;;;;;;;;10459882;28;20106;-78
2023/12/14 09:02:21;;;;;;;3.83;1.50;;;;;;;;;;10458713;28;20087;-78
2023/12/14 09:07:23;;;;;;;9.35;3.58;;;;;;;;;;10445306;28;20478;-78
2023/12/14 09:12:27;;;;;;;5.07;2.28;;;;;;;;;;10450253;28;20037;-78
2023/12/14 09:17:32;;;;;;;6.50;3.03;;;;;;;;;;10458470;28;20075;-78
2023/12/14 09:22:39;;;;;;;5.10;2.60;;;;;;;;;;10457463;28;20173;-77
2023/12/14 09:27:43;;;;;;;5.70;2.63;;;;;;;;;;10476849;28;20056;-77
2023/12/14 09:32:46;;;;;;;;;;;;;;;;;;10474974;28;20036;-77
2023/12/14 09:37:49;;;;;;;6.07;2.38;;;;;;;;;;10460160;28;20010;-78
2023/12/14 09:42:54;;;;;;;5.05;2.05;;;;;;;;;;10466001;28;20040;-78
2023/12/14 09:47:57;;;;;;;6.63;2.10;;;;;;;;;;10462869;28;20355;-78
2023/12/14 09:53:00;;;;;;;3.40;1.70;;;;;;;;;;10458212;28;20048;-78
2023/12/14 09:58:06;;;;;;;7.30;2.58;;;;;;;;;;10458609;28;20040;-79
2023/12/14 10:03:21;;;;;;;4.97;2.15;;;;;;;;;;10462445;28;20755;-79
2023/12/14 10:08:24;;;;;;;6.75;2.40;;;;;;;;;;10463614;28;20048;-78
2023/12/14 10:13:38;;;;;;;5.63;2.57;;;;;;;;;;10460225;28;20049;-79
2023/12/14 10:18:41;;;;;;;4.93;2.38;;;;;;;;;;10455252;28;20052;-78
2023/12/14 10:23:46;;;;;;;4.65;2.40;;;;;;;;;;10468044;28;20044;-78
2023/12/14 10:28:50;;;;;;;7.18;2.97;;;;;;;;;;10462443;28;20052;-79
2023/12/14 10:33:53;;;;;;;;;;;;;;;;;;10457625;28;20045;-79
2023/12/14 10:38:58;;;;;;;6.13;2.65;;;;;;;;;;10462646;28;19924;-79
2023/12/14 10:44:02;;;;;;;7.47;3.40;;;;;;;;;;10462482;28;20394;-78
2023/12/14 10:49:25;;;;;;;;;;;;;;;;;;10461232;28;20107;-79
2023/12/14 10:54:29;;;;;;;2.20;1.52;;;;;;;;;;10455595;28;19928;-79
2023/12/14 10:59:33;;;;;;;2.88;1.48;;;;;;;;;;10462704;28;20106;-79
2023/12/14 11:04:54;;;;;;;5.13;2.10;;;;;;;;;;10455092;28;20141;-79
2023/12/14 11:09:57;;;;;;;4.50;2.53;;;;;;;;;;10456054;28;20068;-79
2023/12/14 11:15:01;;;;;;;6.40;2.55;;;;;;;;;;10461203;28;20397;-79
2023/12/14 11:20:03;;;;;;;;;;;;;;;;;;10460085;28;20044;-79
2023/12/14 11:25:06;;;;;;;6.57;2.40;;;;;;;;;;10465917;28;20005;-78
2023/12/14 11:30:11;;;;;;;4.10;2.42;;;;;;;;;;10451019;28;20642;-78
2023/12/14 11:35:14;;;;;;;3.47;2.08;;;;;;;;;;10464520;28;20126;-78
2023/12/14 11:40:22;;;;;;;5.90;2.80;;;;;;;;;;10468308;28;20133;-78
2023/12/14 11:45:27;;;;;;;4.35;2.30;;;;;;;;;;10460124;28;20045;-78
2023/12/14 11:50:29;;;;;;;4.75;2.33;;;;;;;;;;10466736;28;20044;-79
2023/12/14 11:55:32;;;;;;;4.18;2.22;;;;;;;;;;10455489;28;20045;-79
2023/12/14 12:00:39;;;;;;;4.45;2.20;;;;;;;;;;10453411;28;20128;-79
2023/12/14 12:05:43;;;;;;;2.67;1.63;;;;;;;;;;10456732;28;20780;-78
2023/12/14 12:10:46;;;;;;;2.90;1.60;;;;;;;;;;10450319;28;20049;-79
2023/12/14 12:15:50;;;;;;;2.37;1.50;;;;;;;;;;10460450;28;20036;-78
2023/12/14 12:20:53;;;;;;;;;;;;;;;;;;10453199;28;20460;-77
2023/12/14 12:25:55;;;;;;;2.60;1.30;;;;;;;;;;10455032;28;19928;-79
2023/12/14 12:31:00;;;;;;;3.17;1.17;;;;;;;;;;10459239;28;20053;-79
2023/12/14 12:36:03;;;;;;;3.78;1.30;;;;;;;;;;10454451;28;20513;-78
2023/12/14 12:41:06;;;;;;;3.07;1.67;;;;;;;;;;10451157;28;20049;-78
2023/12/14 12:46:10;;;;;;;3.40;1.50;;;;;;;;;;10455903;28;20302;-79
2023/12/14 12:51:13;;;;;;;4.47;1.88;;;;;;;;;;10457063;28;20175;-80
2023/12/14 12:56:19;;;;;;;1.92;1.15;;;;;;;;;;10459863;28;20135;-77
2023/12/14 13:01:25;;;;;;;1.98;1.15;;;;;;;;;;10462520;28;20051;-78
2023/12/14 13:06:28;;;;;;;3.08;1.40;;;;;;;;;;10463382;28;20044;-78
2023/12/14 13:11:31;;;;;;;2.70;1.15;;;;;;;;;;10458058;28;20044;-77
2023/12/14 13:16:36;;;;;;;2.43;1.37;;;;;;;;;;10460369;28;20049;-77
2023/12/14 13:21:39;;;;;;;3.08;1.30;;;;;;;;;;10448348;28;20314;-78
2023/12/14 13:26:41;;;;;;;1.45;1.00;;;;;;;;;;10464526;28;20116;-77
2023/12/14 13:31:46;;;;;;;3.45;1.83;;;;;;;;;;10467982;28;20466;-77
2023/12/14 13:36:48;;;;;;;3.75;1.83;;;;;;;;;;10464229;28;20048;-78
2023/12/14 13:41:51;;;;;;;2.45;1.45;;;;;;;;;;10474813;28;20457;-77
2023/12/14 13:46:55;;;;;;;3.70;1.63;;;;;;;;;;10470438;28;20050;-80
2023/12/14 13:51:58;;;;;;;;;;;;;;;;;;10447333;28;20052;-79
2023/12/14 13:57:00;;;;;;;3.33;1.33;;;;;;;;;;10454146;28;19967;-79
2023/12/14 14:02:05;;;;;;;3.28;1.30;;;;;;;;;;10458790;28;20326;-79
2023/12/14 14:07:08;;;;;;;3.25;1.20;;;;;;;;;;10463381;28;20075;-79
2023/12/14 14:12:11;;;;;;;2.85;1.35;;;;;;;;;;10459364;28;20140;-78
2023/12/14 14:17:15;;;;;;;2.40;1.40;;;;;;;;;;10462373;28;20075;-79
2023/12/14 14:22:17;;;;;;;;;;;;;;;;;;10465671;28;20040;-79
2023/12/14 14:27:22;;;;;;;4.68;1.77;;;;;;;;;;10466817;28;19924;-77
2023/12/14 14:32:26;;;;;;;3.22;1.83;;;;;;;;;;10458270;28;20199;-78
2023/12/14 14:37:29;;;;;;;4.63;2.03;;;;;;;;;;10459745;28;20052;-79
2023/12/14 14:42:31;;;;;;;3.88;1.80;;;;;;;;;;10456510;28;20063;-79
2023/12/14 14:47:36;;;;;;;3.88;1.95;;;;;;;;;;10455686;28;20084;-78
2023/12/14 14:52:39;;;;;;;;;;;;;;;;;;10454366;28;20125;-78
2023/12/14 14:57:42;;;;;;;7.13;2.10;;;;;;;;;;10457267;28;20371;-78
2023/12/14 15:02:46;;;;;;;6.07;2.10;;;;;;;;;;10447718;28;20824;-79
2023/12/14 15:07:50;;;;;;;3.40;1.75;;;;;;;;;;10458014;28;20487;-77
2023/12/14 15:12:53;;;;;;;5.20;2.50;;;;;;;;;;10452466;28;20044;-77
2023/12/14 15:17:57;;;;;;;7.68;2.05;;;;;;;;;;10440044;28;20089;-75
2023/12/14 15:22:59;;;;;;;6.53;2.33;;;;;;;;;;10461855;28;20045;-78
2023/12/14 15:28:02;;;;;;;5.15;1.90;;;;;;;;;;10456457;28;20463;-77
2023/12/14 15:33:06;;;;;;;5.43;2.15;;;;;;;;;;10454281;28;20041;-78
2023/12/14 15:38:11;;;;;;;7.55;2.33;;;;;;;;;;10453276;28;20810;-76
2023/12/14 15:43:14;;;;;;;8.77;2.40;;;;;;;;;;10465204;28;20040;-78
2023/12/14 15:48:18;;;;;;;3.47;2.08;;;;;;;;;;10456391;28;20049;-77
2023/12/14 15:53:21;;;;;;;3.05;1.13;;;;;;;;;;10455512;28;20133;-77
2023/12/14 15:58:23;;;;;;;5.53;2.00;;;;;;;;;;10451167;28;20087;-76
2023/12/14 16:03:28;;;;;;;5.30;2.30;;;;;;;;;;10457030;28;20083;-77
2023/12/14 16:08:30;;;;;;;;;;;;;;;;;;10454910;28;20052;-77
2023/12/14 16:13:33;;;;;;;9.90;3.45;;;;;;;;;;10453036;28;20349;-77
2023/12/14 16:18:38;;;;;;;4.73;2.13;;;;;;;;;;10443366;28;20048;-77
2023/12/14 16:23:41;;;;;;;3.47;2.08;;;;;;;;;;10446924;28;20045;-77
2023/12/14 16:28:44;;;;;;;7.15;1.85;;;;;;;;;;10457990;28;20120;-78
2023/12/14 16:33:48;;;;;;;3.10;1.42;;;;;;;;;;10459747;28;20531;-77
2023/12/14 16:38:51;;;;;;;5.72;2.88;;;;;;;;;;10463899;28;20094;-78
2023/12/14 16:43:54;;;;;;;4.95;2.45;;;;;;;;;;10470403;28;20060;-77
2023/12/14 16:48:58;;;;;;;3.17;1.90;;;;;;;;;;10448048;28;20486;-78
2023/12/14 16:54:00;;;;;;;2.72;1.55;;;;;;;;;;10450616;28;20049;-77
2023/12/14 16:59:06;;;;;;;2.75;1.48;;;;;;;;;;10464577;28;20037;-77
2023/12/14 17:04:10;;;;;;;5.15;2.00;;;;;;;;;;10465360;28;20068;-77
2023/12/14 17:09:13;;;;;;;4.13;2.10;;;;;;;;;;10470804;28;20967;-78
2023/12/14 17:14:20;;;;;;;2.83;1.87;;;;;;;;;;10462980;28;20390;-78
2023/12/14 17:19:24;;;;;;;2.83;1.63;;;;;;;;;;10464458;28;20067;-78
2023/12/14 17:24:26;;;;;;;2.88;1.67;;;;;;;;;;10475890;28;20064;-77
2023/12/14 17:29:29;;;;;;;3.38;1.85;;;;;;;;;;10469801;28;20478;-78
2023/12/14 17:34:35;;;;;;;2.97;1.02;;;;;;;;;;10472491;28;21303;-78
2023/12/14 17:39:38;;;;;;;11.05;2.40;;;;;;;;;;10465307;28;20044;-78
2023/12/14 17:44:40;;;;;;;5.88;2.03;;;;;;;;;;10461144;28;20549;-77
2023/12/14 17:49:44;;;;;;;6.30;2.10;;;;;;;;;;10450224;28;20054;-76
2023/12/14 17:54:49;;;;;;;6.78;2.55;;;;;;;;;;10456655;28;20073;-77
2023/12/14 17:59:51;;;;;;;2.35;1.25;;;;;;;;;;10462723;28;20697;-77
2023/12/14 18:04:57;;;;;;;5.00;2.40;;;;;;;;;;10468064;28;20120;-77
2023/12/14 18:10:02;;;;;;;4.22;1.63;;;;;;;;;;10464207;28;20043;-77
2023/12/14 18:15:06;;;;;;;7.05;3.33;;;;;;;;;;10463341;28;20147;-77
2023/12/14 18:20:10;;;;;;;5.95;3.13;;;;;;;;;;10461496;28;20052;-78
2023/12/14 18:25:13;;;;;;;6.30;2.80;;;;;;;;;;10460527;28;20363;-78
2023/12/14 18:30:15;;;;;;;6.63;3.08;;;;;;;;;;10467678;28;20041;-77
2023/12/14 18:35:21;;;;;;;8.10;3.17;;;;;;;;;;10459948;28;20029;-77
2023/12/14 18:40:27;;;;;;;4.97;1.67;;;;;;;;;;10461212;28;20040;-77
2023/12/14 18:45:30;;;;;;;6.22;2.72;;;;;;;;;;10457968;28;20039;-76
2023/12/14 18:50:34;;;;;;;5.68;3.10;;;;;;;;;;10458879;28;21049;-77
2023/12/14 18:55:36;;;;;;;2.92;1.50;;;;;;;;;;10464128;28;20052;-77
2023/12/14 19:00:39;;;;;;;4.97;2.22;;;;;;;;;;10462913;28;20129;-76
2023/12/14 19:05:44;;;;;;;8.00;3.22;;;;;;;;;;10463984;28;20037;-76
2023/12/14 19:10:47;;;;;;;8.52;2.97;;;;;;;;;;10456592;28;20382;-76
2023/12/14 19:15:50;;;;;;;7.53;3.60;;;;;;;;;;10465435;28;20044;-77
2023/12/14 19:20:54;;;;;;;5.35;2.50;;;;;;;;;;10452989;28;20110;-77
2023/12/14 19:25:58;;;;;;;;;;;;;;;;;;10455196;28;20119;-76
2023/12/14 19:31:01;;;;;;;6.27;2.73;;;;;;;;;;10470177;28;20530;-76
2023/12/14 19:36:11;;;;;;;7.25;3.78;;;;;;;;;;10462554;28;20037;-77
2023/12/14 19:41:14;;;;;;;11.30;4.60;;;;;;;;;;10479529;28;20052;-79
2023/12/14 19:46:19;;;;;;;9.37;3.50;;;;;;;;;;10481787;28;20115;-77
2023/12/14 19:51:23;;;;;;;9.00;4.07;;;;;;;;;;10481525;28;20045;-77
2023/12/14 19:56:29;;;;;;;6.13;2.67;;;;;;;;;;10484828;28;20037;-78
2023/12/14 20:01:32;;;;;;;8.07;3.53;;;;;;;;;;10492078;28;20044;-76
2023/12/14 20:06:36;;;;;;;10.20;3.85;;;;;;;;;;10493313;28;20099;-76
2023/12/14 20:11:38;;;;;;;8.60;3.85;;;;;;;;;;10491968;28;20068;-77
2023/12/14 20:16:46;;;;;;;10.65;4.40;;;;;;;;;;10492961;28;20046;-76
2023/12/14 20:21:50;;;;;;;11.70;4.77;;;;;;;;;;10487732;28;20033;-77
2023/12/14 20:26:56;;;;;;;9.60;4.07;;;;;;;;;;10491089;28;20078;-77
2023/12/14 20:31:59;;;;;;;9.95;4.53;;;;;;;;;;10485527;28;20413;-76
2023/12/14 20:37:08;;;;;;;14.35;6.13;;;;;;;;;;10483336;28;20036;-78
2023/12/14 20:42:11;;;;;;;14.57;5.28;;;;;;;;;;10488559;28;20119;-76
2023/12/14 20:47:14;;;;;;;14.38;5.32;;;;;;;;;;10491018;28;20117;-78
2023/12/14 20:52:18;;;;;;;11.48;5.13;;;;;;;;;;10499413;28;20042;-77
2023/12/14 20:57:21;;;;;;;9.63;4.60;;;;;;;;;;10490644;28;20063;-76
2023/12/14 21:02:26;;;;;;;8.82;3.85;;;;;;;;;;10490638;28;20024;-77
2023/12/14 21:07:30;;;;;;;5.82;2.95;;;;;;;;;;10483529;28;20033;-77
2023/12/14 21:12:33;;;;;;;;;;;;;;;;;;10477815;28;20041;-77
2023/12/14 21:17:36;;;;;;;7.88;3.60;;;;;;;;;;10464023;28;19932;-78
2023/12/14 21:22:40;;;;;;;;;;;;;;;;;;10471000;28;20543;-78
2023/12/14 21:27:49;;;;;;;7.25;2.97;;;;;;;;;;10471737;28;19975;-77
2023/12/14 21:32:52;;;;;;;6.95;2.90;;;;;;;;;;10449552;28;20041;-77
2023/12/14 21:37:54;;;;;;;6.40;3.05;;;;;;;;;;10464337;28;20049;-78
2023/12/14 21:42:58;;;;;;;9.48;3.45;;;;;;;;;;10458775;28;20545;-78
2023/12/14 21:48:01;;;;;;;8.13;3.17;;;;;;;;;;10465359;28;20075;-78
2023/12/14 21:53:05;;;;;;;8.07;3.53;;;;;;;;;;10451849;28;20053;-78
2023/12/14 21:58:10;;;;;;;9.73;4.03;;;;;;;;;;10466033;28;20715;-77
2023/12/14 22:03:14;;;;;;;8.63;4.22;;;;;;;;;;10444470;28;20159;-78
2023/12/14 22:08:17;;;;;;;7.68;3.85;;;;;;;;;;10460082;28;20429;-78
2023/12/14 22:13:21;;;;;;;9.70;4.50;;;;;;;;;;10461306;28;20059;-78
2023/12/14 22:18:23;;;;;;;;;;;;;;;;;;10461153;28;20044;-78
2023/12/14 22:23:26;;;;;;;10.02;4.50;;;;;;;;;;10469724;28;20241;-78
2023/12/14 22:28:30;;;;;;;9.57;4.13;;;;;;;;;;10466376;28;20532;-77
2023/12/14 22:33:33;;;;;;;10.75;4.82;;;;;;;;;;10468736;28;20037;-80
2023/12/14 22:38:36;;;;;;;7.82;3.78;;;;;;;;;;10464261;28;20127;-78
2023/12/14 22:43:40;;;;;;;9.98;4.60;;;;;;;;;;10463863;28;20507;-79
2023/12/14 22:48:43;;;;;;;;;;;;;;;;;;10469191;28;20140;-79
2023/12/14 22:53:46;;;;;;;12.13;4.78;;;;;;;;;;10470144;28;19932;-77
2023/12/14 22:58:50;;;;;;;12.00;5.20;;;;;;;;;;10470872;28;20163;-77
2023/12/14 23:03:55;;;;;;;12.98;5.32;;;;;;;;;;10465926;28;20045;-77
2023/12/14 23:08:57;;;;;;;13.75;4.72;;;;;;;;;;10458842;28;20043;-82
2023/12/14 23:14:02;;;;;;;11.65;5.20;;;;;;;;;;10469242;28;20051;-77
2023/12/14 23:19:07;;;;;;;;;;;;;;;;;;10474184;28;20048;-78
2023/12/14 23:24:10;;;;;;;10.02;4.68;;;;;;;;;;10481742;28;20369;-78
2023/12/14 23:29:14;;;;;;;9.20;4.22;;;;;;;;;;10471676;28;20041;-78
2023/12/14 23:34:17;;;;;;;9.13;3.50;;;;;;;;;;10473672;28;20552;-78
2023/12/14 23:39:20;;;;;;;8.40;3.57;;;;;;;;;;10475563;28;20060;-81
2023/12/14 23:44:24;;;;;;;8.02;4.05;;;;;;;;;;10471886;28;20041;-79
2023/12/14 23:49:27;;;;;;;9.45;4.07;;;;;;;;;;10481485;28;20048;-80
2023/12/14 23:54:30;;;;;;;10.27;4.18;;;;;;;;;;10474438;28;20045;-81
2023/12/14 23:59:34;;;;;;;8.57;3.40;;;;;;;;;;10460938;28;20045;-80
